sensor_id;sensor_type;location;lat;lon;timestamp;P1;durP1;ratioP1;P2;durP2;ratioP2
35084;SDS011;21267;51.032;6.998;2024-01-15T00:02:02;26.42;;;14.43;;
35084;SDS011;21267;51.032;6.998;2024-01-15T00:04:29;26.52;;;14.45;;
35084;SDS011;21267;51.032;6.998;2024-01-15T00:06:56;39.43;;;22.80;;
35084;SDS011;21267;51.032;6.998;2024-01-15T00:09:23;27.27;;;14.10;;
35084;SDS011;21267;51.032;6.998;2024-01-15T00:11:50;41.53;;;18.02;;
35084;SDS011;21267;51.032;6.998;2024-01-15T00:14:17;39.28;;;21.20;;
35084;SDS011;21267;51.032;6.998;2024-01-15T00:16:47;43.63;;;20.35;;
35084;SDS011;21267;51.032;6.998;2024-01-15T00:19:15;39.35;;;18.95;;
35084;SDS011;21267;51.032;6.998;2024-01-15T00:21:42;47.50;;;24.05;;
35084;SDS011;21267;51.032;6.998;2024-01-15T00:24:11;43.55;;;22.52;;
35084;SDS011;21267;51.032;6.998;2024-01-15T00:26:39;31.98;;;15.80;;
35084;SDS011;21267;51.032;6.998;2024-01-15T00:29:06;41.25;;;21.08;;
35084;SDS011;21267;51.032;6.998;2024-01-15T00:34:01;41.20;;;20.93;;
35084;SDS011;21267;51.032;6.998;2024-01-15T00:36:28;38.03;;;20.93;;
35084;SDS011;21267;51.032;6.998;2024-01-15T00:38:55;37.33;;;18.13;;
35084;SDS011;21267;51.032;6.998;2024-01-15T00:41:21;40.40;;;20.98;;
35084;SDS011;21267;51.032;6.998;2024-01-15T00:43:48;40.00;;;21.35;;
35084;SDS011;21267;51.032;6.998;2024-01-15T00:46:15;28.15;;;15.60;;
35084;SDS011;21267;51.032;6.998;2024-01-15T00:48:42;37.75;;;18.75;;
35084;SDS011;21267;51.032;6.998;2024-01-15T00:51:09;32.07;;;17.50;;
35084;SDS011;21267;51.032;6.998;2024-01-15T00:53:36;40.33;;;17.30;;
35084;SDS011;21267;51.032;6.998;2024-01-15T00:56:03;42.37;;;19.80;;
35084;SDS011;21267;51.032;6.998;2024-01-15T01:01:39;48.30;;;24.65;;
35084;SDS011;21267;51.032;6.998;2024-01-15T01:04:22;22.15;;;12.52;;
35084;SDS011;21267;51.032;6.998;2024-01-15T01:07:03;37.30;;;18.63;;
35084;SDS011;21267;51.032;6.998;2024-01-15T01:09:43;52.95;;;24.95;;
35084;SDS011;21267;51.032;6.998;2024-01-15T01:12:25;39.60;;;15.43;;
35084;SDS011;21267;51.032;6.998;2024-01-15T01:15:06;49.92;;;26.02;;
35084;SDS011;21267;51.032;6.998;2024-01-15T01:17:46;49.03;;;20.65;;
35084;SDS011;21267;51.032;6.998;2024-01-15T01:20:27;35.38;;;15.98;;
35084;SDS011;21267;51.032;6.998;2024-01-15T01:22:54;40.58;;;21.08;;
35084;SDS011;21267;51.032;6.998;2024-01-15T01:25:20;44.55;;;19.90;;
35084;SDS011;21267;51.032;6.998;2024-01-15T01:27:47;27.25;;;14.63;;
35084;SDS011;21267;51.032;6.998;2024-01-15T01:30:14;40.53;;;20.40;;
35084;SDS011;21267;51.032;6.998;2024-01-15T01:32:41;40.07;;;18.53;;
35084;SDS011;21267;51.032;6.998;2024-01-15T01:35:08;33.83;;;17.25;;
35084;SDS011;21267;51.032;6.998;2024-01-15T01:37:35;35.63;;;15.93;;
35084;SDS011;21267;51.032;6.998;2024-01-15T01:40:01;46.75;;;22.55;;
35084;SDS011;21267;51.032;6.998;2024-01-15T01:42:28;43.70;;;21.58;;
35084;SDS011;21267;51.032;6.998;2024-01-15T01:44:55;35.25;;;17.80;;
35084;SDS011;21267;51.032;6.998;2024-01-15T01:47:22;47.60;;;27.77;;
35084;SDS011;21267;51.032;6.998;2024-01-15T01:49:49;25.33;;;12.02;;
35084;SDS011;21267;51.032;6.998;2024-01-15T01:52:16;53.80;;;24.53;;
35084;SDS011;21267;51.032;6.998;2024-01-15T01:54:43;45.40;;;22.98;;
35084;SDS011;21267;51.032;6.998;2024-01-15T01:57:10;50.75;;;25.63;;
35084;SDS011;21267;51.032;6.998;2024-01-15T01:59:38;33.85;;;18.23;;
35084;SDS011;21267;51.032;6.998;2024-01-15T02:02:05;44.55;;;22.00;;
35084;SDS011;21267;51.032;6.998;2024-01-15T02:04:32;34.20;;;17.93;;
35084;SDS011;21267;51.032;6.998;2024-01-15T02:06:59;26.57;;;14.33;;
35084;SDS011;21267;51.032;6.998;2024-01-15T02:09:27;34.58;;;19.30;;
35084;SDS011;21267;51.032;6.998;2024-01-15T02:11:53;29.05;;;14.05;;
35084;SDS011;21267;51.032;6.998;2024-01-15T02:14:20;41.70;;;19.17;;
35084;SDS011;21267;51.032;6.998;2024-01-15T02:16:48;29.85;;;14.50;;
35084;SDS011;21267;51.032;6.998;2024-01-15T02:19:17;31.90;;;16.90;;
35084;SDS011;21267;51.032;6.998;2024-01-15T02:21:45;30.30;;;13.15;;
35084;SDS011;21267;51.032;6.998;2024-01-15T02:24:12;24.00;;;12.17;;
35084;SDS011;21267;51.032;6.998;2024-01-15T02:26:39;36.50;;;18.30;;
35084;SDS011;21267;51.032;6.998;2024-01-15T02:29:09;35.15;;;18.02;;
35084;SDS011;21267;51.032;6.998;2024-01-15T02:31:36;38.17;;;19.48;;
35084;SDS011;21267;51.032;6.998;2024-01-15T02:34:04;32.40;;;15.73;;
35084;SDS011;21267;51.032;6.998;2024-01-15T02:36:32;35.83;;;18.85;;
35084;SDS011;21267;51.032;6.998;2024-01-15T02:39:00;36.45;;;19.35;;
35084;SDS011;21267;51.032;6.998;2024-01-15T02:41:26;28.77;;;15.65;;
35084;SDS011;21267;51.032;6.998;2024-01-15T02:43:53;26.25;;;12.63;;
35084;SDS011;21267;51.032;6.998;2024-01-15T02:46:20;18.83;;;9.63;;
35084;SDS011;21267;51.032;6.998;2024-01-15T02:48:47;20.67;;;12.30;;
35084;SDS011;21267;51.032;6.998;2024-01-15T02:51:14;29.17;;;15.23;;
35084;SDS011;21267;51.032;6.998;2024-01-15T02:53:40;39.10;;;21.38;;
35084;SDS011;21267;51.032;6.998;2024-01-15T02:56:07;29.33;;;16.42;;
35084;SDS011;21267;51.032;6.998;2024-01-15T02:58:34;25.47;;;14.07;;
35084;SDS011;21267;51.032;6.998;2024-01-15T03:01:01;35.72;;;20.17;;
35084;SDS011;21267;51.032;6.998;2024-01-15T03:03:28;23.73;;;11.80;;
35084;SDS011;21267;51.032;6.998;2024-01-15T03:05:56;31.70;;;17.38;;
35084;SDS011;21267;51.032;6.998;2024-01-15T03:08:23;35.75;;;18.00;;
35084;SDS011;21267;51.032;6.998;2024-01-15T03:10:50;25.35;;;11.80;;
35084;SDS011;21267;51.032;6.998;2024-01-15T03:13:16;29.83;;;14.63;;
35084;SDS011;21267;51.032;6.998;2024-01-15T03:15:45;32.28;;;17.10;;
35084;SDS011;21267;51.032;6.998;2024-01-15T03:18:12;31.35;;;16.75;;
35084;SDS011;21267;51.032;6.998;2024-01-15T03:20:40;30.50;;;15.13;;
35084;SDS011;21267;51.032;6.998;2024-01-15T03:23:06;29.60;;;15.10;;
35084;SDS011;21267;51.032;6.998;2024-01-15T03:25:33;28.90;;;16.13;;
35084;SDS011;21267;51.032;6.998;2024-01-15T03:27:59;23.75;;;12.77;;
35084;SDS011;21267;51.032;6.998;2024-01-15T03:30:26;21.27;;;12.35;;
35084;SDS011;21267;51.032;6.998;2024-01-15T03:32:53;29.05;;;14.82;;
35084;SDS011;21267;51.032;6.998;2024-01-15T03:35:20;25.87;;;16.20;;
35084;SDS011;21267;51.032;6.998;2024-01-15T03:37:47;25.57;;;12.60;;
35084;SDS011;21267;51.032;6.998;2024-01-15T03:40:14;24.98;;;15.80;;
35084;SDS011;21267;51.032;6.998;2024-01-15T03:42:45;31.67;;;18.08;;
35084;SDS011;21267;51.032;6.998;2024-01-15T03:45:12;24.52;;;11.98;;
35084;SDS011;21267;51.032;6.998;2024-01-15T03:47:38;30.95;;;18.50;;
35084;SDS011;21267;51.032;6.998;2024-01-15T03:50:06;23.48;;;12.07;;
35084;SDS011;21267;51.032;6.998;2024-01-15T03:52:33;17.88;;;8.93;;
35084;SDS011;21267;51.032;6.998;2024-01-15T03:55:00;24.05;;;13.10;;
35084;SDS011;21267;51.032;6.998;2024-01-15T03:57:26;22.65;;;11.48;;
35084;SDS011;21267;51.032;6.998;2024-01-15T03:59:53;23.17;;;12.73;;
35084;SDS011;21267;51.032;6.998;2024-01-15T04:02:20;22.80;;;11.50;;
35084;SDS011;21267;51.032;6.998;2024-01-15T04:04:46;29.92;;;16.27;;
35084;SDS011;21267;51.032;6.998;2024-01-15T04:07:13;23.25;;;12.77;;
35084;SDS011;21267;51.032;6.998;2024-01-15T04:09:40;29.63;;;16.85;;
35084;SDS011;21267;51.032;6.998;2024-01-15T04:12:07;28.45;;;16.17;;
35084;SDS011;21267;51.032;6.998;2024-01-15T04:14:34;19.67;;;9.30;;
35084;SDS011;21267;51.032;6.998;2024-01-15T04:17:00;27.90;;;16.95;;
35084;SDS011;21267;51.032;6.998;2024-01-15T04:19:27;23.83;;;13.65;;
35084;SDS011;21267;51.032;6.998;2024-01-15T04:21:54;27.05;;;16.67;;
35084;SDS011;21267;51.032;6.998;2024-01-15T04:24:20;32.55;;;16.58;;
35084;SDS011;21267;51.032;6.998;2024-01-15T04:26:47;25.67;;;12.65;;
35084;SDS011;21267;51.032;6.998;2024-01-15T04:29:15;31.27;;;17.58;;
35084;SDS011;21267;51.032;6.998;2024-01-15T04:31:45;31.33;;;16.45;;
35084;SDS011;21267;51.032;6.998;2024-01-15T04:34:12;33.13;;;19.88;;
35084;SDS011;21267;51.032;6.998;2024-01-15T04:36:39;30.30;;;16.80;;
35084;SDS011;21267;51.032;6.998;2024-01-15T04:39:07;26.80;;;17.63;;
35084;SDS011;21267;51.032;6.998;2024-01-15T04:41:34;21.45;;;11.38;;
35084;SDS011;21267;51.032;6.998;2024-01-15T04:44:01;28.87;;;17.13;;
35084;SDS011;21267;51.032;6.998;2024-01-15T04:46:27;27.25;;;16.50;;
35084;SDS011;21267;51.032;6.998;2024-01-15T04:48:54;19.77;;;11.27;;
35084;SDS011;21267;51.032;6.998;2024-01-15T04:51:21;20.60;;;12.13;;
35084;SDS011;21267;51.032;6.998;2024-01-15T04:53:48;27.67;;;14.80;;
35084;SDS011;21267;51.032;6.998;2024-01-15T04:56:15;22.77;;;11.63;;
35084;SDS011;21267;51.032;6.998;2024-01-15T04:58:42;26.95;;;16.35;;
35084;SDS011;21267;51.032;6.998;2024-01-15T05:01:08;25.08;;;12.27;;
35084;SDS011;21267;51.032;6.998;2024-01-15T05:06:06;26.45;;;15.18;;
35084;SDS011;21267;51.032;6.998;2024-01-15T05:08:33;25.10;;;13.20;;
35084;SDS011;21267;51.032;6.998;2024-01-15T05:11:03;20.83;;;11.15;;
35084;SDS011;21267;51.032;6.998;2024-01-15T05:13:29;18.48;;;10.65;;
35084;SDS011;21267;51.032;6.998;2024-01-15T05:15:56;19.17;;;8.93;;
35084;SDS011;21267;51.032;6.998;2024-01-15T05:18:23;23.00;;;14.13;;
35084;SDS011;21267;51.032;6.998;2024-01-15T05:20:50;21.92;;;12.73;;
35084;SDS011;21267;51.032;6.998;2024-01-15T05:23:19;20.98;;;12.27;;
35084;SDS011;21267;51.032;6.998;2024-01-15T05:25:45;20.42;;;9.88;;
35084;SDS011;21267;51.032;6.998;2024-01-15T05:28:13;23.23;;;14.43;;
35084;SDS011;21267;51.032;6.998;2024-01-15T05:33:07;18.92;;;11.85;;
35084;SDS011;21267;51.032;6.998;2024-01-15T05:35:36;15.27;;;8.18;;
35084;SDS011;21267;51.032;6.998;2024-01-15T05:38:03;17.17;;;10.40;;
35084;SDS011;21267;51.032;6.998;2024-01-15T05:40:30;19.75;;;9.48;;
35084;SDS011;21267;51.032;6.998;2024-01-15T05:42:57;16.63;;;9.60;;
35084;SDS011;21267;51.032;6.998;2024-01-15T05:45:25;22.80;;;13.25;;
35084;SDS011;21267;51.032;6.998;2024-01-15T05:47:56;25.17;;;13.77;;
35084;SDS011;21267;51.032;6.998;2024-01-15T05:50:23;20.50;;;9.73;;
35084;SDS011;21267;51.032;6.998;2024-01-15T05:52:50;19.77;;;10.43;;
35084;SDS011;21267;51.032;6.998;2024-01-15T05:55:16;15.48;;;6.95;;
35084;SDS011;21267;51.032;6.998;2024-01-15T05:57:45;19.00;;;11.23;;
35084;SDS011;21267;51.032;6.998;2024-01-15T06:00:12;14.93;;;10.17;;
35084;SDS011;21267;51.032;6.998;2024-01-15T06:02:39;21.65;;;13.50;;
35084;SDS011;21267;51.032;6.998;2024-01-15T06:05:07;24.50;;;10.13;;
35084;SDS011;21267;51.032;6.998;2024-01-15T06:07:36;20.15;;;9.75;;
35084;SDS011;21267;51.032;6.998;2024-01-15T06:10:03;20.15;;;10.68;;
35084;SDS011;21267;51.032;6.998;2024-01-15T06:12:33;8.38;;;5.10;;
35084;SDS011;21267;51.032;6.998;2024-01-15T06:15:02;15.85;;;8.07;;
35084;SDS011;21267;51.032;6.998;2024-01-15T06:17:29;17.00;;;10.77;;
35084;SDS011;21267;51.032;6.998;2024-01-15T06:19:55;21.27;;;13.20;;
35084;SDS011;21267;51.032;6.998;2024-01-15T06:24:50;17.88;;;9.75;;
35084;SDS011;21267;51.032;6.998;2024-01-15T06:27:18;18.20;;;8.65;;
35084;SDS011;21267;51.032;6.998;2024-01-15T06:29:48;15.95;;;7.72;;
35084;SDS011;21267;51.032;6.998;2024-01-15T06:32:16;18.73;;;12.15;;
35084;SDS011;21267;51.032;6.998;2024-01-15T06:34:43;17.00;;;10.20;;
35084;SDS011;21267;51.032;6.998;2024-01-15T06:37:10;18.05;;;9.75;;
35084;SDS011;21267;51.032;6.998;2024-01-15T06:39:37;17.55;;;12.18;;
35084;SDS011;21267;51.032;6.998;2024-01-15T06:42:03;14.68;;;7.80;;
35084;SDS011;21267;51.032;6.998;2024-01-15T06:44:30;11.00;;;7.55;;
35084;SDS011;21267;51.032;6.998;2024-01-15T06:46:57;15.40;;;9.35;;
35084;SDS011;21267;51.032;6.998;2024-01-15T06:49:29;15.30;;;9.00;;
35084;SDS011;21267;51.032;6.998;2024-01-15T06:51:56;10.68;;;6.45;;
35084;SDS011;21267;51.032;6.998;2024-01-15T06:54:23;9.75;;;6.68;;
35084;SDS011;21267;51.032;6.998;2024-01-15T06:56:50;12.88;;;8.02;;
35084;SDS011;21267;51.032;6.998;2024-01-15T06:59:17;14.48;;;8.93;;
35084;SDS011;21267;51.032;6.998;2024-01-15T07:01:45;21.15;;;10.05;;
35084;SDS011;21267;51.032;6.998;2024-01-15T07:04:12;17.73;;;11.40;;
35084;SDS011;21267;51.032;6.998;2024-01-15T07:06:40;14.93;;;9.03;;
35084;SDS011;21267;51.032;6.998;2024-01-15T07:09:08;23.58;;;14.02;;
35084;SDS011;21267;51.032;6.998;2024-01-15T07:11:36;20.73;;;13.02;;
35084;SDS011;21267;51.032;6.998;2024-01-15T07:14:03;19.00;;;10.30;;
35084;SDS011;21267;51.032;6.998;2024-01-15T07:16:30;24.57;;;14.57;;
35084;SDS011;21267;51.032;6.998;2024-01-15T07:19:04;18.73;;;11.10;;
35084;SDS011;21267;51.032;6.998;2024-01-15T07:21:31;24.55;;;15.20;;
35084;SDS011;21267;51.032;6.998;2024-01-15T07:23:58;24.85;;;13.52;;
35084;SDS011;21267;51.032;6.998;2024-01-15T07:26:26;16.47;;;7.43;;
35084;SDS011;21267;51.032;6.998;2024-01-15T07:28:53;16.92;;;10.68;;
35084;SDS011;21267;51.032;6.998;2024-01-15T07:33:39;17.58;;;10.73;;
35084;SDS011;21267;51.032;6.998;2024-01-15T07:36:19;23.58;;;15.70;;
35084;SDS011;21267;51.032;6.998;2024-01-15T07:39:00;11.82;;;8.18;;
35084;SDS011;21267;51.032;6.998;2024-01-15T07:41:41;20.95;;;11.88;;
35084;SDS011;21267;51.032;6.998;2024-01-15T07:44:11;14.10;;;8.95;;
35084;SDS011;21267;51.032;6.998;2024-01-15T07:46:38;22.08;;;14.05;;
35084;SDS011;21267;51.032;6.998;2024-01-15T07:49:05;25.98;;;13.60;;
35084;SDS011;21267;51.032;6.998;2024-01-15T07:51:33;17.35;;;10.77;;
35084;SDS011;21267;51.032;6.998;2024-01-15T07:53:59;24.95;;;15.15;;
35084;SDS011;21267;51.032;6.998;2024-01-15T07:56:26;15.10;;;8.40;;
35084;SDS011;21267;51.032;6.998;2024-01-15T07:58:54;21.37;;;12.80;;
35084;SDS011;21267;51.032;6.998;2024-01-15T08:01:23;20.80;;;12.23;;
35084;SDS011;21267;51.032;6.998;2024-01-15T08:03:50;22.20;;;11.67;;
35084;SDS011;21267;51.032;6.998;2024-01-15T08:06:17;21.93;;;14.10;;
35084;SDS011;21267;51.032;6.998;2024-01-15T08:08:44;20.07;;;11.57;;
35084;SDS011;21267;51.032;6.998;2024-01-15T08:11:11;21.00;;;13.60;;
35084;SDS011;21267;51.032;6.998;2024-01-15T08:13:38;14.10;;;9.10;;
35084;SDS011;21267;51.032;6.998;2024-01-15T08:16:05;23.37;;;14.37;;
35084;SDS011;21267;51.032;6.998;2024-01-15T08:18:32;22.23;;;13.65;;
35084;SDS011;21267;51.032;6.998;2024-01-15T08:20:59;20.47;;;10.77;;
35084;SDS011;21267;51.032;6.998;2024-01-15T08:23:27;25.67;;;15.73;;
35084;SDS011;21267;51.032;6.998;2024-01-15T08:25:59;23.55;;;14.55;;
35084;SDS011;21267;51.032;6.998;2024-01-15T08:28:26;24.47;;;16.23;;
35084;SDS011;21267;51.032;6.998;2024-01-15T08:30:53;20.52;;;12.55;;
35084;SDS011;21267;51.032;6.998;2024-01-15T08:33:20;31.70;;;18.77;;
35084;SDS011;21267;51.032;6.998;2024-01-15T08:38:14;14.00;;;9.35;;
35084;SDS011;21267;51.032;6.998;2024-01-15T08:40:42;24.05;;;15.05;;
35084;SDS011;21267;51.032;6.998;2024-01-15T08:43:09;26.55;;;14.93;;
35084;SDS011;21267;51.032;6.998;2024-01-15T08:45:38;27.05;;;15.55;;
35084;SDS011;21267;51.032;6.998;2024-01-15T08:48:05;21.92;;;10.55;;
35084;SDS011;21267;51.032;6.998;2024-01-15T08:50:32;18.08;;;11.93;;
35084;SDS011;21267;51.032;6.998;2024-01-15T08:52:59;16.60;;;12.43;;
35084;SDS011;21267;51.032;6.998;2024-01-15T08:55:26;25.88;;;14.90;;
35084;SDS011;21267;51.032;6.998;2024-01-15T08:57:53;25.60;;;13.38;;
35084;SDS011;21267;51.032;6.998;2024-01-15T09:00:21;24.30;;;15.43;;
35084;SDS011;21267;51.032;6.998;2024-01-15T09:05:14;24.73;;;14.98;;
35084;SDS011;21267;51.032;6.998;2024-01-15T09:07:41;29.88;;;18.42;;
35084;SDS011;21267;51.032;6.998;2024-01-15T09:10:08;25.95;;;14.90;;
35084;SDS011;21267;51.032;6.998;2024-01-15T09:12:35;26.85;;;14.13;;
35084;SDS011;21267;51.032;6.998;2024-01-15T09:15:02;22.42;;;13.02;;
35084;SDS011;21267;51.032;6.998;2024-01-15T09:17:31;21.42;;;12.50;;
35084;SDS011;21267;51.032;6.998;2024-01-15T09:19:58;18.90;;;11.50;;
35084;SDS011;21267;51.032;6.998;2024-01-15T09:22:26;16.07;;;11.77;;
35084;SDS011;21267;51.032;6.998;2024-01-15T09:24:53;17.37;;;9.07;;
35084;SDS011;21267;51.032;6.998;2024-01-15T09:27:19;22.13;;;14.15;;
35084;SDS011;21267;51.032;6.998;2024-01-15T09:29:46;23.15;;;14.68;;
35084;SDS011;21267;51.032;6.998;2024-01-15T09:32:21;24.58;;;15.07;;
35084;SDS011;21267;51.032;6.998;2024-01-15T09:34:48;14.98;;;9.10;;
35084;SDS011;21267;51.032;6.998;2024-01-15T09:37:16;26.50;;;15.88;;
35084;SDS011;21267;51.032;6.998;2024-01-15T09:40:03;15.80;;;9.13;;
35084;SDS011;21267;51.032;6.998;2024-01-15T09:42:33;24.08;;;14.43;;
35084;SDS011;21267;51.032;6.998;2024-01-15T09:45:01;21.05;;;11.07;;
35084;SDS011;21267;51.032;6.998;2024-01-15T09:47:30;15.25;;;9.98;;
35084;SDS011;21267;51.032;6.998;2024-01-15T09:49:57;9.77;;;6.38;;
35084;SDS011;21267;51.032;6.998;2024-01-15T09:52:25;9.95;;;7.68;;
35084;SDS011;21267;51.032;6.998;2024-01-15T09:54:52;11.45;;;7.85;;
35084;SDS011;21267;51.032;6.998;2024-01-15T09:57:19;10.82;;;6.57;;
35084;SDS011;21267;51.032;6.998;2024-01-15T09:59:46;15.27;;;9.85;;
35084;SDS011;21267;51.032;6.998;2024-01-15T10:02:14;8.70;;;5.75;;
35084;SDS011;21267;51.032;6.998;2024-01-15T10:04:44;15.00;;;6.03;;
35084;SDS011;21267;51.032;6.998;2024-01-15T10:07:15;15.68;;;10.60;;
35084;SDS011;21267;51.032;6.998;2024-01-15T10:09:49;10.07;;;4.82;;
35084;SDS011;21267;51.032;6.998;2024-01-15T10:12:16;15.55;;;7.95;;
35084;SDS011;21267;51.032;6.998;2024-01-15T10:14:47;14.35;;;10.27;;
35084;SDS011;21267;51.032;6.998;2024-01-15T10:17:15;13.50;;;9.68;;
35084;SDS011;21267;51.032;6.998;2024-01-15T10:19:46;12.50;;;9.45;;
35084;SDS011;21267;51.032;6.998;2024-01-15T10:22:16;10.38;;;7.15;;
35084;SDS011;21267;51.032;6.998;2024-01-15T10:24:45;7.95;;;6.10;;
35084;SDS011;21267;51.032;6.998;2024-01-15T10:27:14;7.38;;;4.93;;
35084;SDS011;21267;51.032;6.998;2024-01-15T10:29:42;10.52;;;7.25;;
35084;SDS011;21267;51.032;6.998;2024-01-15T10:32:09;11.40;;;7.43;;
35084;SDS011;21267;51.032;6.998;2024-01-15T10:34:41;11.57;;;7.22;;
35084;SDS011;21267;51.032;6.998;2024-01-15T10:37:10;13.00;;;9.27;;
35084;SDS011;21267;51.032;6.998;2024-01-15T10:39:37;9.97;;;7.93;;
35084;SDS011;21267;51.032;6.998;2024-01-15T10:42:05;13.93;;;9.88;;
35084;SDS011;21267;51.032;6.998;2024-01-15T10:44:33;11.98;;;8.30;;
35084;SDS011;21267;51.032;6.998;2024-01-15T10:47:01;6.18;;;4.78;;
35084;SDS011;21267;51.032;6.998;2024-01-15T10:49:28;7.07;;;4.90;;
35084;SDS011;21267;51.032;6.998;2024-01-15T10:51:59;7.32;;;5.03;;
35084;SDS011;21267;51.032;6.998;2024-01-15T10:54:27;8.57;;;5.88;;
35084;SDS011;21267;51.032;6.998;2024-01-15T10:56:56;7.95;;;4.85;;
35084;SDS011;21267;51.032;6.998;2024-01-15T10:59:26;7.45;;;6.00;;
35084;SDS011;21267;51.032;6.998;2024-01-15T11:01:52;6.55;;;2.78;;
35084;SDS011;21267;51.032;6.998;2024-01-15T11:04:21;5.32;;;4.00;;
35084;SDS011;21267;51.032;6.998;2024-01-15T11:06:52;7.80;;;4.65;;
35084;SDS011;21267;51.032;6.998;2024-01-15T11:09:23;3.75;;;3.35;;
35084;SDS011;21267;51.032;6.998;2024-01-15T11:17:06;4.22;;;2.42;;
35084;SDS011;21267;51.032;6.998;2024-01-15T11:19:36;4.63;;;2.92;;
35084;SDS011;21267;51.032;6.998;2024-01-15T11:22:09;4.82;;;2.55;;
35084;SDS011;21267;51.032;6.998;2024-01-15T11:27:45;8.95;;;5.60;;
35084;SDS011;21267;51.032;6.998;2024-01-15T11:30:19;6.45;;;2.00;;
35084;SDS011;21267;51.032;6.998;2024-01-15T11:32:46;2.90;;;2.37;;
35084;SDS011;21267;51.032;6.998;2024-01-15T11:35:14;4.43;;;1.58;;
35084;SDS011;21267;51.032;6.998;2024-01-15T11:40:19;11.53;;;6.33;;
35084;SDS011;21267;51.032;6.998;2024-01-15T11:42:47;2.85;;;2.22;;
35084;SDS011;21267;51.032;6.998;2024-01-15T11:45:20;4.93;;;2.20;;
35084;SDS011;21267;51.032;6.998;2024-01-15T11:48:10;1.58;;;0.95;;
35084;SDS011;21267;51.032;6.998;2024-01-15T11:55:58;1.40;;;1.30;;
35084;SDS011;21267;51.032;6.998;2024-01-15T11:58:28;2.88;;;1.92;;
35084;SDS011;21267;51.032;6.998;2024-01-15T12:00:56;2.97;;;2.60;;
35084;SDS011;21267;51.032;6.998;2024-01-15T12:03:24;5.15;;;3.03;;
35084;SDS011;21267;51.032;6.998;2024-01-15T12:05:55;2.05;;;1.85;;
35084;SDS011;21267;51.032;6.998;2024-01-15T12:08:22;2.20;;;1.90;;
35084;SDS011;21267;51.032;6.998;2024-01-15T12:10:50;4.85;;;3.97;;
35084;SDS011;21267;51.032;6.998;2024-01-15T12:13:20;4.65;;;3.08;;
35084;SDS011;21267;51.032;6.998;2024-01-15T12:15:47;9.90;;;3.80;;
35084;SDS011;21267;51.032;6.998;2024-01-15T12:18:16;4.72;;;4.07;;
35084;SDS011;21267;51.032;6.998;2024-01-15T12:20:45;4.50;;;3.58;;
35084;SDS011;21267;51.032;6.998;2024-01-15T12:23:16;9.30;;;3.80;;
35084;SDS011;21267;51.032;6.998;2024-01-15T12:25:44;5.85;;;3.65;;
35084;SDS011;21267;51.032;6.998;2024-01-15T12:28:13;6.68;;;5.43;;
35084;SDS011;21267;51.032;6.998;2024-01-15T12:30:41;3.20;;;2.45;;
35084;SDS011;21267;51.032;6.998;2024-01-15T12:33:09;6.18;;;3.97;;
35084;SDS011;21267;51.032;6.998;2024-01-15T12:35:36;6.13;;;4.20;;
35084;SDS011;21267;51.032;6.998;2024-01-15T12:38:03;5.63;;;4.00;;
35084;SDS011;21267;51.032;6.998;2024-01-15T12:40:31;8.48;;;4.35;;
35084;SDS011;21267;51.032;6.998;2024-01-15T12:43:02;8.25;;;5.45;;
35084;SDS011;21267;51.032;6.998;2024-01-15T12:45:30;6.33;;;3.93;;
35084;SDS011;21267;51.032;6.998;2024-01-15T12:47:58;10.80;;;4.25;;
35084;SDS011;21267;51.032;6.998;2024-01-15T12:50:25;9.37;;;4.90;;
35084;SDS011;21267;51.032;6.998;2024-01-15T12:52:55;7.90;;;4.15;;
35084;SDS011;21267;51.032;6.998;2024-01-15T12:55:21;11.20;;;4.22;;
35084;SDS011;21267;51.032;6.998;2024-01-15T12:57:49;4.93;;;2.13;;
35084;SDS011;21267;51.032;6.998;2024-01-15T13:00:20;8.07;;;3.97;;
35084;SDS011;21267;51.032;6.998;2024-01-15T13:02:47;7.50;;;3.88;;
35084;SDS011;21267;51.032;6.998;2024-01-15T13:05:16;3.45;;;2.65;;
35084;SDS011;21267;51.032;6.998;2024-01-15T13:07:45;4.50;;;2.33;;
35084;SDS011;21267;51.032;6.998;2024-01-15T13:10:13;13.40;;;4.18;;
35084;SDS011;21267;51.032;6.998;2024-01-15T13:12:43;6.40;;;3.10;;
35084;SDS011;21267;51.032;6.998;2024-01-15T13:15:10;6.68;;;2.85;;
35084;SDS011;21267;51.032;6.998;2024-01-15T13:17:51;2.95;;;2.65;;
35084;SDS011;21267;51.032;6.998;2024-01-15T13:20:18;4.57;;;1.92;;
35084;SDS011;21267;51.032;6.998;2024-01-15T13:22:59;5.20;;;2.85;;
35084;SDS011;21267;51.032;6.998;2024-01-15T13:25:26;4.20;;;2.30;;
35084;SDS011;21267;51.032;6.998;2024-01-15T13:27:52;3.65;;;2.58;;
35084;SDS011;21267;51.032;6.998;2024-01-15T13:30:19;6.95;;;2.53;;
35084;SDS011;21267;51.032;6.998;2024-01-15T13:32:59;3.35;;;2.75;;
35084;SDS011;21267;51.032;6.998;2024-01-15T13:35:31;2.88;;;2.00;;
35084;SDS011;21267;51.032;6.998;2024-01-15T13:37:59;1.58;;;1.42;;
35084;SDS011;21267;51.032;6.998;2024-01-15T13:40:28;1.73;;;1.42;;
35084;SDS011;21267;51.032;6.998;2024-01-15T13:42:55;6.32;;;2.13;;
35084;SDS011;21267;51.032;6.998;2024-01-15T13:45:22;4.85;;;1.58;;
35084;SDS011;21267;51.032;6.998;2024-01-15T13:47:50;2.80;;;1.58;;
35084;SDS011;21267;51.032;6.998;2024-01-15T13:50:17;2.65;;;1.27;;
35084;SDS011;21267;51.032;6.998;2024-01-15T13:52:43;3.90;;;1.20;;
35084;SDS011;21267;51.032;6.998;2024-01-15T13:55:12;3.13;;;2.05;;
35084;SDS011;21267;51.032;6.998;2024-01-15T13:57:39;6.38;;;1.95;;
35084;SDS011;21267;51.032;6.998;2024-01-15T14:00:07;2.58;;;1.52;;
35084;SDS011;21267;51.032;6.998;2024-01-15T14:02:38;2.33;;;1.67;;
35084;SDS011;21267;51.032;6.998;2024-01-15T14:05:08;3.20;;;2.25;;
35084;SDS011;21267;51.032;6.998;2024-01-15T14:07:35;1.97;;;1.27;;
35084;SDS011;21267;51.032;6.998;2024-01-15T14:10:02;5.93;;;2.53;;
35084;SDS011;21267;51.032;6.998;2024-01-15T14:12:29;4.00;;;1.80;;
35084;SDS011;21267;51.032;6.998;2024-01-15T14:14:56;3.17;;;2.42;;
35084;SDS011;21267;51.032;6.998;2024-01-15T14:17:22;1.85;;;1.42;;
35084;SDS011;21267;51.032;6.998;2024-01-15T14:19:49;1.52;;;1.42;;
35084;SDS011;21267;51.032;6.998;2024-01-15T14:22:18;1.35;;;1.25;;
35084;SDS011;21267;51.032;6.998;2024-01-15T14:24:48;3.00;;;2.60;;
35084;SDS011;21267;51.032;6.998;2024-01-15T14:27:17;2.08;;;1.63;;
35084;SDS011;21267;51.032;6.998;2024-01-15T14:29:45;2.80;;;2.47;;
35084;SDS011;21267;51.032;6.998;2024-01-15T14:32:13;3.08;;;2.42;;
35084;SDS011;21267;51.032;6.998;2024-01-15T14:34:39;3.90;;;1.63;;
35084;SDS011;21267;51.032;6.998;2024-01-15T14:37:08;1.65;;;1.55;;
35084;SDS011;21267;51.032;6.998;2024-01-15T14:39:34;2.13;;;1.73;;
35084;SDS011;21267;51.032;6.998;2024-01-15T14:42:01;3.70;;;2.47;;
35084;SDS011;21267;51.032;6.998;2024-01-15T14:44:28;5.93;;;3.50;;
35084;SDS011;21267;51.032;6.998;2024-01-15T14:46:56;5.20;;;2.90;;
35084;SDS011;21267;51.032;6.998;2024-01-15T14:49:25;2.42;;;1.27;;
35084;SDS011;21267;51.032;6.998;2024-01-15T14:51:54;1.88;;;1.77;;
35084;SDS011;21267;51.032;6.998;2024-01-15T14:54:21;1.47;;;1.37;;
35084;SDS011;21267;51.032;6.998;2024-01-15T14:56:50;4.47;;;2.58;;
35084;SDS011;21267;51.032;6.998;2024-01-15T14:59:17;1.63;;;1.23;;
35084;SDS011;21267;51.032;6.998;2024-01-15T15:01:44;2.05;;;1.48;;
35084;SDS011;21267;51.032;6.998;2024-01-15T15:04:11;4.47;;;1.67;;
35084;SDS011;21267;51.032;6.998;2024-01-15T15:06:38;2.23;;;1.90;;
35084;SDS011;21267;51.032;6.998;2024-01-15T15:09:05;0.60;;;0.60;;
35084;SDS011;21267;51.032;6.998;2024-01-15T15:11:36;1.63;;;1.13;;
35084;SDS011;21267;51.032;6.998;2024-01-15T15:14:06;3.28;;;2.58;;